Time,TemperatureF,DewpointF,PressureIn,WindDirection,WindDirectionDegrees,WindSpeedMPH,WindSpeedGustMPH,Humidity,HourlyPrecipIn,Conditions,Clouds,dailyrainin,SoftwareType,DateUTC
2013-08-04 00:03:00,63.1,58.2,30.07,East,85,0.0,0.0,84,0.00,,,0.00,Wunderground v.1.15,2013-08-04 05:03:00,
2013-08-04 00:08:00,62.8,57.9,30.07,East,85,0.0,0.0,84,0.00,,,0.00,Wunderground v.1.15,2013-08-04 05:08:00,
2013-08-04 00:14:00,62.2,58.0,30.07,East,85,0.0,0.0,86,0.00,,,0.00,Wunderground v.1.15,2013-08-04 05:14:00,
2013-08-04 00:19:00,62.0,57.8,30.07,East,85,0.0,0.0,86,0.00,,,0.00,Wunderground v.1.15,2013-08-04 05:19:00,
2013-08-04 00:24:00,62.0,57.8,30.07,East,85,0.0,0.0,86,0.00,,,0.00,Wunderground v.1.15,2013-08-04 05:24:00,
2013-08-04 00:30:00,62.2,57.6,30.07,East,85,0.0,0.0,85,0.00,,,0.00,Wunderground v.1.15,2013-08-04 05:30:00,
2013-08-04 00:36:00,62.2,57.6,30.07,East,85,0.0,0.0,85,0.00,,,0.00,Wunderground v.1.15,2013-08-04 05:36:00,
2013-08-04 00:41:00,62.2,57.3,30.07,East,85,0.0,0.0,84,0.00,,,0.00,Wunderground v.1.15,2013-08-04 05:41:00,
2013-08-04 00:47:00,62.4,57.5,30.08,East,85,0.0,0.0,84,0.00,,,0.00,Wunderground v.1.15,2013-08-04 05:47:00,
2013-08-04 00:52:00,62.4,57.2,30.08,East,85,0.0,0.0,83,0.00,,,0.00,Wunderground v.1.15,2013-08-04 05:52:00,
2013-08-04 00:57:00,62.6,57.4,30.08,East,85,0.0,0.0,83,0.00,,,0.00,Wunderground v.1.15,2013-08-04 05:57:00,
2013-08-04 01:03:00,62.8,57.6,30.08,East,85,0.0,0.0,83,0.00,,,0.00,Wunderground v.1.15,2013-08-04 06:03:00,
2013-08-04 01:08:00,62.2,57.3,30.08,East,85,0.0,0.0,84,0.00,,,0.00,Wunderground v.1.15,2013-08-04 06:08:00,
2013-08-04 01:13:00,61.5,56.9,30.08,East,85,0.0,0.0,85,0.00,,,0.00,Wunderground v.1.15,2013-08-04 06:13:00,
2013-08-04 01:18:00,60.8,56.6,30.08,East,85,0.0,0.0,86,0.00,,,0.00,Wunderground v.1.15,2013-08-04 06:18:00,
2013-08-04 01:24:00,60.6,56.7,30.08,East,85,0.0,0.0,87,0.00,,,0.00,Wunderground v.1.15,2013-08-04 06:24:00,
2013-08-04 01:29:00,60.9,57.0,30.08,West,264,0.0,0.0,87,0.00,,,0.00,Wunderground v.1.15,2013-08-04 06:29:00,
2013-08-04 01:34:00,60.8,56.9,30.08,WNW,284,1.0,4.0,87,0.00,,,0.00,Wunderground v.1.15,2013-08-04 06:34:00,
2013-08-04 01:40:00,60.5,56.6,30.08,WNW,284,3.0,3.0,87,0.00,,,0.00,Wunderground v.1.15,2013-08-04 06:40:00,
2013-08-04 01:45:00,60.3,56.4,30.08,WNW,284,2.0,3.0,87,0.00,,,0.00,Wunderground v.1.15,2013-08-04 06:45:00,
2013-08-04 01:50:00,60.2,56.6,30.08,WNW,285,2.0,2.0,88,0.00,,,0.00,Wunderground v.1.15,2013-08-04 06:50:00,
2013-08-04 01:55:00,60.5,56.6,30.08,WNW,284,2.0,2.0,87,0.00,,,0.00,Wunderground v.1.15,2013-08-04 06:55:00,
2013-08-04 02:00:00,60.1,56.2,30.08,WNW,284,2.0,2.0,87,0.00,,,0.00,Wunderground v.1.15,2013-08-04 07:00:00,
2013-08-04 02:06:00,60.1,56.5,30.08,WNW,284,2.0,3.0,88,0.00,,,0.00,Wunderground v.1.15,2013-08-04 07:06:00,
2013-08-04 02:12:00,60.1,56.2,30.08,West,276,3.0,3.0,87,0.00,,,0.00,Wunderground v.1.15,2013-08-04 07:12:00,
2013-08-04 02:17:00,60.4,56.2,30.08,West,275,2.0,3.0,86,0.00,,,0.00,Wunderground v.1.15,2013-08-04 07:17:00,
2013-08-04 02:22:00,60.7,56.5,30.08,West,265,2.0,3.0,86,0.00,,,0.00,Wunderground v.1.15,2013-08-04 07:22:00,
2013-08-04 02:27:00,59.8,55.9,30.08,West,276,3.0,3.0,87,0.00,,,0.00,Wunderground v.1.15,2013-08-04 07:27:00,
2013-08-04 02:32:00,59.3,55.7,30.08,West,272,3.0,3.0,88,0.00,,,0.00,Wunderground v.1.15,2013-08-04 07:32:00,
2013-08-04 02:38:00,59.1,55.5,30.09,West,268,2.0,3.0,88,0.00,,,0.00,Wunderground v.1.15,2013-08-04 07:38:00,
2013-08-04 02:43:00,58.8,55.6,30.08,West,268,1.0,2.0,89,0.00,,,0.00,Wunderground v.1.15,2013-08-04 07:43:00,
2013-08-04 02:48:00,58.7,55.5,30.08,West,268,0.0,2.0,89,0.00,,,0.00,Wunderground v.1.15,2013-08-04 07:48:00,
2013-08-04 02:54:00,58.5,55.3,30.09,West,268,0.0,0.0,89,0.00,,,0.00,Wunderground v.1.15,2013-08-04 07:54:00,
2013-08-04 02:59:00,58.7,55.5,30.09,West,265,0.0,1.0,89,0.00,,,0.00,Wunderground v.1.15,2013-08-04 07:59:00,
2013-08-04 03:04:00,58.9,55.7,30.09,West,265,1.0,2.0,89,0.00,,,0.00,Wunderground v.1.15,2013-08-04 08:04:00,
2013-08-04 03:09:00,59.7,55.8,30.08,West,265,2.0,2.0,87,0.00,,,0.00,Wunderground v.1.15,2013-08-04 08:09:00,
2013-08-04 03:15:00,59.1,55.2,30.08,West,265,1.0,2.0,87,0.00,,,0.00,Wunderground v.1.15,2013-08-04 08:15:00,
2013-08-04 03:20:00,59.5,55.6,30.08,West,265,0.0,0.0,87,0.00,,,0.00,Wunderground v.1.15,2013-08-04 08:20:00,
2013-08-04 03:25:00,59.3,55.1,30.08,WNW,284,0.0,0.0,86,0.00,,,0.00,Wunderground v.1.15,2013-08-04 08:25:00,
2013-08-04 03:30:00,59.1,55.2,30.08,West,268,0.0,0.0,87,0.00,,,0.00,Wunderground v.1.15,2013-08-04 08:30:00,
2013-08-04 03:35:00,58.4,54.9,30.08,West,268,0.0,0.0,88,0.00,,,0.00,Wunderground v.1.15,2013-08-04 08:35:00,
2013-08-04 03:40:00,58.1,54.6,30.07,West,268,0.0,0.0,88,0.00,,,0.00,Wunderground v.1.15,2013-08-04 08:40:00,
2013-08-04 03:45:00,58.0,54.8,30.07,West,268,0.0,0.0,89,0.00,,,0.00,Wunderground v.1.15,2013-08-04 08:45:00,
2013-08-04 03:50:00,58.2,55.0,30.07,West,268,0.0,1.0,89,0.00,,,0.00,Wunderground v.1.15,2013-08-04 08:50:00,
2013-08-04 03:55:00,57.8,54.6,30.08,WNW,286,2.0,4.0,89,0.00,,,0.00,Wunderground v.1.15,2013-08-04 08:55:00,
2013-08-04 04:00:00,56.9,54.0,30.08,WNW,286,3.0,3.0,90,0.00,,,0.00,Wunderground v.1.15,2013-08-04 09:00:00,
2013-08-04 04:06:00,56.2,53.3,30.08,SSW,209,1.0,3.0,90,0.00,,,0.00,Wunderground v.1.15,2013-08-04 09:06:00,
2013-08-04 04:11:00,55.7,52.8,30.07,SSW,209,0.0,0.0,90,0.00,,,0.00,Wunderground v.1.15,2013-08-04 09:11:00,
2013-08-04 04:17:00,55.9,53.0,30.07,SSW,209,0.0,0.0,90,0.00,,,0.00,Wunderground v.1.15,2013-08-04 09:17:00,
2013-08-04 04:22:00,56.3,53.4,30.08,SSW,209,0.0,0.0,90,0.00,,,0.00,Wunderground v.1.15,2013-08-04 09:22:00,
2013-08-04 04:27:00,56.3,53.4,30.07,SSW,209,0.0,0.0,90,0.00,,,0.00,Wunderground v.1.15,2013-08-04 09:27:00,
2013-08-04 04:32:00,56.5,53.6,30.08,WSW,237,0.0,1.0,90,0.00,,,0.00,Wunderground v.1.15,2013-08-04 09:32:00,
2013-08-04 04:37:00,56.8,53.9,30.08,WSW,239,0.0,1.0,90,0.00,,,0.00,Wunderground v.1.15,2013-08-04 09:37:00,
2013-08-04 04:43:00,56.6,53.7,30.08,West,269,1.0,3.0,90,0.00,,,0.00,Wunderground v.1.15,2013-08-04 09:43:00,
2013-08-04 04:48:00,55.8,52.9,30.08,West,268,2.0,3.0,90,0.00,,,0.00,Wunderground v.1.15,2013-08-04 09:48:00,
2013-08-04 04:54:00,55.4,52.5,30.08,West,268,2.0,2.0,90,0.00,,,0.00,Wunderground v.1.15,2013-08-04 09:54:00,
2013-08-04 04:58:00,55.4,52.5,30.08,West,268,2.0,2.0,90,0.00,,,0.00,Wunderground v.1.15,2013-08-04 09:58:00,
2013-08-04 05:04:00,55.9,53.0,30.08,West,268,2.0,2.0,90,0.00,,,0.00,Wunderground v.1.15,2013-08-04 10:04:00,
2013-08-04 05:09:00,55.9,53.0,30.09,West,263,1.0,2.0,90,0.00,,,0.00,Wunderground v.1.15,2013-08-04 10:09:00,
2013-08-04 05:15:00,55.5,52.6,30.08,West,259,2.0,2.0,90,0.00,,,0.00,Wunderground v.1.15,2013-08-04 10:15:00,
2013-08-04 05:20:00,55.4,52.5,30.08,West,260,2.0,2.0,90,0.00,,,0.00,Wunderground v.1.15,2013-08-04 10:20:00,
2013-08-04 05:24:00,55.3,52.4,30.09,West,260,1.0,2.0,90,0.00,,,0.00,Wunderground v.1.15,2013-08-04 10:24:00,
2013-08-04 05:30:00,55.1,52.2,30.09,West,259,1.0,2.0,90,0.00,,,0.00,Wunderground v.1.15,2013-08-04 10:30:00,
2013-08-04 05:35:00,55.0,52.1,30.09,West,260,1.0,2.0,90,0.00,,,0.00,Wunderground v.1.15,2013-08-04 10:35:00,
2013-08-04 05:41:00,54.7,51.8,30.09,West,259,1.0,1.0,90,0.00,,,0.00,Wunderground v.1.15,2013-08-04 10:41:00,
2013-08-04 05:46:00,54.5,51.6,30.09,West,260,0.0,1.0,90,0.00,,,0.00,Wunderground v.1.15,2013-08-04 10:46:00,
2013-08-04 05:51:00,54.4,51.5,30.09,West,260,0.0,0.0,90,0.00,,,0.00,Wunderground v.1.15,2013-08-04 10:51:00,
2013-08-04 05:56:00,54.6,52.0,30.09,West,260,0.0,0.0,91,0.00,,,0.00,Wunderground v.1.15,2013-08-04 10:56:00,
2013-08-04 06:02:00,55.1,52.5,30.10,West,260,0.0,2.0,91,0.00,,,0.00,Wunderground v.1.15,2013-08-04 11:02:00,
2013-08-04 06:07:00,55.0,52.1,30.10,WSW,258,1.0,2.0,90,0.00,,,0.00,Wunderground v.1.15,2013-08-04 11:07:00,
2013-08-04 06:12:00,54.9,52.0,30.10,WSW,257,1.0,1.0,90,0.00,,,0.00,Wunderground v.1.15,2013-08-04 11:12:00,
2013-08-04 06:17:00,54.9,52.0,30.11,WSW,253,1.0,1.0,90,0.00,,,0.00,Wunderground v.1.15,2013-08-04 11:17:00,
2013-08-04 06:22:00,55.0,52.1,30.11,WSW,250,1.0,2.0,90,0.00,,,0.00,Wunderground v.1.15,2013-08-04 11:22:00,
2013-08-04 06:27:00,55.1,52.2,30.11,WSW,250,1.0,2.0,90,0.00,,,0.00,Wunderground v.1.15,2013-08-04 11:27:00,
2013-08-04 06:32:00,55.3,52.4,30.11,WSW,249,1.0,1.0,90,0.00,,,0.00,Wunderground v.1.15,2013-08-04 11:32:00,
2013-08-04 06:37:00,55.6,52.7,30.11,WSW,248,1.0,1.0,90,0.00,,,0.00,Wunderground v.1.15,2013-08-04 11:37:00,
2013-08-04 06:42:00,55.9,53.0,30.12,WSW,250,1.0,1.0,90,0.00,,,0.00,Wunderground v.1.15,2013-08-04 11:42:00,
2013-08-04 06:47:00,56.4,53.5,30.12,WSW,250,1.0,1.0,90,0.00,,,0.00,Wunderground v.1.15,2013-08-04 11:47:00,
2013-08-04 06:52:00,56.9,54.0,30.12,WSW,250,0.0,1.0,90,0.00,,,0.00,Wunderground v.1.15,2013-08-04 11:52:00,
2013-08-04 06:57:00,57.2,54.3,30.12,WSW,250,0.0,1.0,90,0.00,,,0.00,Wunderground v.1.15,2013-08-04 11:57:00,
2013-08-04 07:02:00,57.8,54.9,30.12,WSW,248,0.0,2.0,90,0.00,,,0.00,Wunderground v.1.15,2013-08-04 12:02:00,
2013-08-04 07:08:00,58.3,55.4,30.11,WSW,248,1.0,2.0,90,0.00,,,0.00,Wunderground v.1.15,2013-08-04 12:08:00,
2013-08-04 07:14:00,59.0,56.1,30.11,WSW,248,0.0,0.0,90,0.00,,,0.00,Wunderground v.1.15,2013-08-04 12:14:00,
2013-08-04 07:18:00,59.6,56.7,30.11,WSW,249,0.0,0.0,90,0.00,,,0.00,Wunderground v.1.15,2013-08-04 12:18:00,
2013-08-04 07:24:00,60.3,57.4,30.11,WSW,249,0.0,0.0,90,0.00,,,0.00,Wunderground v.1.15,2013-08-04 12:24:00,
2013-08-04 07:29:00,60.8,57.8,30.11,WSW,249,0.0,1.0,90,0.00,,,0.00,Wunderground v.1.15,2013-08-04 12:29:00,
2013-08-04 07:34:00,61.4,58.4,30.11,WSW,248,0.0,0.0,90,0.00,,,0.00,Wunderground v.1.15,2013-08-04 12:34:00,
2013-08-04 07:39:00,61.8,58.5,30.11,West,271,1.0,2.0,89,0.00,,,0.00,Wunderground v.1.15,2013-08-04 12:39:00,
2013-08-04 07:44:00,62.4,59.1,30.12,WNW,296,1.0,3.0,89,0.00,,,0.00,Wunderground v.1.15,2013-08-04 12:44:00,
2013-08-04 07:49:00,62.6,59.3,30.12,NW,319,3.0,5.0,89,0.00,,,0.00,Wunderground v.1.15,2013-08-04 12:49:00,
2013-08-04 07:54:00,62.8,59.5,30.12,WNW,287,3.0,5.0,89,0.00,,,0.00,Wunderground v.1.15,2013-08-04 12:54:00,
2013-08-04 07:58:00,63.2,59.9,30.12,WNW,301,3.0,5.0,89,0.00,,,0.00,Wunderground v.1.15,2013-08-04 12:58:00,
2013-08-04 08:04:00,63.6,60.0,30.12,NW,315,2.0,4.0,88,0.00,,,0.00,Wunderground v.1.15,2013-08-04 13:04:00,
2013-08-04 08:08:00,64.1,60.5,30.12,NNW,327,2.0,4.0,88,0.00,,,0.00,Wunderground v.1.15,2013-08-04 13:08:00,
2013-08-04 08:14:00,64.2,60.6,30.12,NW,313,3.0,4.0,88,0.00,,,0.00,Wunderground v.1.15,2013-08-04 13:14:00,
2013-08-04 08:19:00,64.7,61.1,30.12,WNW,301,3.0,4.0,88,0.00,,,0.00,Wunderground v.1.15,2013-08-04 13:19:00,
2013-08-04 08:24:00,65.3,61.7,30.12,North,355,2.0,3.0,88,0.00,,,0.00,Wunderground v.1.15,2013-08-04 13:24:00,
2013-08-04 08:29:00,65.6,61.3,30.12,NW,320,2.0,3.0,86,0.00,,,0.00,Wunderground v.1.15,2013-08-04 13:29:00,
2013-08-04 08:34:00,66.1,61.5,30.12,NW,308,2.0,3.0,85,0.00,,,0.00,Wunderground v.1.15,2013-08-04 13:34:00,
2013-08-04 08:39:00,66.7,61.0,30.12,NNW,343,1.0,3.0,82,0.00,,,0.00,Wunderground v.1.15,2013-08-04 13:39:00,
2013-08-04 08:44:00,67.2,61.2,30.12,NNW,341,1.0,2.0,81,0.00,,,0.00,Wunderground v.1.15,2013-08-04 13:44:00,
2013-08-04 08:49:00,67.6,61.6,30.12,NW,318,1.0,3.0,81,0.00,,,0.00,Wunderground v.1.15,2013-08-04 13:49:00,
2013-08-04 08:54:00,67.8,61.4,30.12,NW,320,1.0,2.0,80,0.00,,,0.00,Wunderground v.1.15,2013-08-04 13:54:00,
2013-08-04 08:59:00,68.1,62.0,30.13,NW,310,1.0,4.0,81,0.00,,,0.00,Wunderground v.1.15,2013-08-04 13:59:00,
2013-08-04 09:05:00,68.4,61.3,30.12,NW,317,1.0,2.0,78,0.00,,,0.00,Wunderground v.1.15,2013-08-04 14:05:00,
2013-08-04 09:11:00,68.4,61.3,30.13,ENE,78,2.0,2.0,78,0.00,,,0.00,Wunderground v.1.15,2013-08-04 14:11:00,
2013-08-04 09:15:00,68.8,62.4,30.12,NW,308,2.0,3.0,80,0.00,,,0.00,Wunderground v.1.15,2013-08-04 14:15:00,
2013-08-04 09:20:00,69.5,62.3,30.13,NE,50,1.0,2.0,78,0.00,,,0.00,Wunderground v.1.15,2013-08-04 14:20:00,
2013-08-04 09:26:00,69.4,62.2,30.12,ENE,66,2.0,4.0,78,0.00,,,0.00,Wunderground v.1.15,2013-08-04 14:26:00,
2013-08-04 09:31:00,69.1,61.2,30.12,ENE,58,3.0,3.0,76,0.00,,,0.00,Wunderground v.1.15,2013-08-04 14:31:00,
2013-08-04 09:35:00,69.6,62.1,30.13,North,359,3.0,4.0,77,0.00,,,0.00,Wunderground v.1.15,2013-08-04 14:35:00,
2013-08-04 09:42:00,70.3,63.1,30.13,ENE,58,2.0,6.0,78,0.00,,,0.00,Wunderground v.1.15,2013-08-04 14:42:00,
2013-08-04 09:47:00,70.1,62.2,30.13,NE,52,4.0,6.0,76,0.00,,,0.00,Wunderground v.1.15,2013-08-04 14:47:00,
2013-08-04 09:52:00,70.1,62.2,30.13,ENE,66,4.0,6.0,76,0.00,,,0.00,Wunderground v.1.15,2013-08-04 14:52:00,
2013-08-04 09:57:00,70.7,62.4,30.13,NE,54,3.0,6.0,75,0.00,,,0.00,Wunderground v.1.15,2013-08-04 14:57:00,
2013-08-04 10:02:00,70.8,62.1,30.12,NW,304,3.0,5.0,74,0.00,,,0.00,Wunderground v.1.15,2013-08-04 15:02:00,
2013-08-04 10:08:00,71.6,62.5,30.12,NNE,13,4.0,7.0,73,0.00,,,0.00,Wunderground v.1.15,2013-08-04 15:08:00,
2013-08-04 10:13:00,71.9,62.4,30.12,NNW,331,3.0,3.0,72,0.00,,,0.00,Wunderground v.1.15,2013-08-04 15:13:00,
2013-08-04 10:19:00,72.2,62.7,30.12,NE,40,3.0,5.0,72,0.00,,,0.00,Wunderground v.1.15,2013-08-04 15:19:00,
2013-08-04 10:24:00,72.2,61.9,30.12,NNW,340,3.0,6.0,70,0.00,,,0.00,Wunderground v.1.15,2013-08-04 15:24:00,
2013-08-04 10:29:00,72.3,62.8,30.12,West,265,2.0,6.0,72,0.00,,,0.00,Wunderground v.1.15,2013-08-04 15:29:00,
2013-08-04 10:34:00,72.6,62.3,30.12,NE,42,2.0,6.0,70,0.00,,,0.00,Wunderground v.1.15,2013-08-04 15:34:00,
2013-08-04 10:39:00,72.6,62.7,30.12,SE,144,3.0,3.0,71,0.00,,,0.00,Wunderground v.1.15,2013-08-04 15:39:00,
2013-08-04 10:44:00,73.2,63.2,30.12,NE,51,2.0,4.0,71,0.00,,,0.00,Wunderground v.1.15,2013-08-04 15:44:00,
2013-08-04 10:50:00,73.3,60.8,30.12,ENE,57,2.0,2.0,65,0.00,,,0.00,Wunderground v.1.15,2013-08-04 15:50:00,
2013-08-04 10:56:00,73.7,62.1,30.12,West,261,2.0,3.0,67,0.00,,,0.00,Wunderground v.1.15,2013-08-04 15:56:00,
2013-08-04 11:01:00,74.2,62.5,30.12,NNE,24,2.0,4.0,67,0.00,,,0.00,Wunderground v.1.15,2013-08-04 16:01:00,
2013-08-04 11:06:00,74.3,62.2,30.13,ENE,74,2.0,4.0,66,0.00,,,0.00,Wunderground v.1.15,2013-08-04 16:06:00,
2013-08-04 11:11:00,74.6,61.6,30.13,NE,52,2.0,2.0,64,0.00,,,0.00,Wunderground v.1.15,2013-08-04 16:11:00,
2013-08-04 11:17:00,75.1,60.3,30.13,SSE,159,2.0,3.0,60,0.00,,,0.00,Wunderground v.1.15,2013-08-04 16:17:00,
2013-08-04 11:22:00,75.2,60.4,30.13,West,265,2.0,2.0,60,0.00,,,0.00,Wunderground v.1.15,2013-08-04 16:22:00,
2013-08-04 11:27:00,75.4,60.5,30.12,ESE,103,2.0,4.0,60,0.00,,,0.00,Wunderground v.1.15,2013-08-04 16:27:00,
2013-08-04 11:33:00,75.7,59.4,30.12,West,273,2.0,4.0,57,0.00,,,0.00,Wunderground v.1.15,2013-08-04 16:33:00,
2013-08-04 11:37:00,75.7,57.9,30.12,East,93,2.0,4.0,54,0.00,,,0.00,Wunderground v.1.15,2013-08-04 16:37:00,
2013-08-04 11:43:00,75.9,59.1,30.12,SW,227,2.0,2.0,56,0.00,,,0.00,Wunderground v.1.15,2013-08-04 16:43:00,
2013-08-04 11:48:00,76.3,58.9,30.12,WNW,293,2.0,4.0,55,0.00,,,0.00,Wunderground v.1.15,2013-08-04 16:48:00,
2013-08-04 11:53:00,76.4,58.5,30.12,WNW,290,3.0,4.0,54,0.00,,,0.00,Wunderground v.1.15,2013-08-04 16:53:00,
2013-08-04 11:58:00,76.4,59.0,30.12,SW,219,3.0,4.0,55,0.00,,,0.00,Wunderground v.1.15,2013-08-04 16:58:00,
2013-08-04 12:02:00,77.0,59.6,30.12,NNW,339,2.0,5.0,55,0.00,,,0.00,Wunderground v.1.15,2013-08-04 17:02:00,
2013-08-04 12:09:00,76.1,58.2,30.11,North,3,3.0,5.0,54,0.00,,,0.00,Wunderground v.1.15,2013-08-04 17:09:00,
2013-08-04 12:15:00,76.5,58.1,30.12,West,261,3.0,3.0,53,0.00,,,0.00,Wunderground v.1.15,2013-08-04 17:15:00,
2013-08-04 12:20:00,77.3,60.9,30.12,WNW,299,2.0,3.0,57,0.00,,,0.00,Wunderground v.1.15,2013-08-04 17:20:00,
2013-08-04 12:25:00,77.6,58.6,30.11,WNW,290,2.0,5.0,52,0.00,,,0.00,Wunderground v.1.15,2013-08-04 17:25:00,
2013-08-04 12:30:00,77.3,58.8,30.11,West,279,3.0,3.0,53,0.00,,,0.00,Wunderground v.1.15,2013-08-04 17:30:00,
2013-08-04 12:35:00,77.2,57.1,30.11,North,2,3.0,5.0,50,0.00,,,0.00,Wunderground v.1.15,2013-08-04 17:35:00,
2013-08-04 12:40:00,77.1,57.0,30.12,West,276,2.0,2.0,50,0.00,,,0.00,Wunderground v.1.15,2013-08-04 17:40:00,
2013-08-04 12:45:00,76.8,58.4,30.12,WNW,287,3.0,6.0,53,0.00,,,0.00,Wunderground v.1.15,2013-08-04 17:45:00,
2013-08-04 12:50:00,76.4,58.5,30.11,West,267,4.0,4.0,54,0.00,,,0.00,Wunderground v.1.15,2013-08-04 17:50:00,
2013-08-04 12:55:00,76.8,58.4,30.11,West,267,4.0,5.0,53,0.00,,,0.00,Wunderground v.1.15,2013-08-04 17:55:00,
2013-08-04 13:00:00,77.4,58.9,30.11,WNW,291,3.0,5.0,53,0.00,,,0.00,Wunderground v.1.15,2013-08-04 18:00:00,
2013-08-04 13:06:00,77.3,57.8,30.11,West,264,3.0,5.0,51,0.00,,,0.00,Wunderground v.1.15,2013-08-04 18:06:00,
2013-08-04 13:11:00,77.5,56.8,30.11,NW,310,3.0,3.0,49,0.00,,,0.00,Wunderground v.1.15,2013-08-04 18:11:00,
2013-08-04 13:16:00,77.8,58.2,30.10,WSW,251,3.0,3.0,51,0.00,,,0.00,Wunderground v.1.15,2013-08-04 18:16:00,
2013-08-04 13:21:00,77.5,57.4,30.10,NNW,335,3.0,3.0,50,0.00,,,0.00,Wunderground v.1.15,2013-08-04 18:21:00,
2013-08-04 13:26:00,77.3,59.9,30.10,West,277,2.0,3.0,55,0.00,,,0.00,Wunderground v.1.15,2013-08-04 18:26:00,
2013-08-04 13:31:00,77.1,60.7,30.10,West,276,2.0,2.0,57,0.00,,,0.00,Wunderground v.1.15,2013-08-04 18:31:00,
2013-08-04 13:36:00,77.2,57.7,30.10,West,259,2.0,3.0,51,0.00,,,0.00,Wunderground v.1.15,2013-08-04 18:36:00,
2013-08-04 13:42:00,77.8,60.8,30.10,NNW,331,2.0,4.0,56,0.00,,,0.00,Wunderground v.1.15,2013-08-04 18:42:00,
2013-08-04 13:47:00,77.8,59.8,30.10,NE,52,3.0,6.0,54,0.00,,,0.00,Wunderground v.1.15,2013-08-04 18:47:00,
2013-08-04 13:52:00,76.9,57.9,30.09,ESE,115,4.0,5.0,52,0.00,,,0.00,Wunderground v.1.15,2013-08-04 18:52:00,
2013-08-04 13:57:00,77.4,58.9,30.09,North,356,3.0,5.0,53,0.00,,,0.00,Wunderground v.1.15,2013-08-04 18:57:00,
2013-08-04 14:03:00,76.8,58.4,30.09,ENE,64,3.0,4.0,53,0.00,,,0.00,Wunderground v.1.15,2013-08-04 19:03:00,
2013-08-04 14:09:00,77.3,57.2,30.09,ENE,68,3.0,4.0,50,0.00,,,0.00,Wunderground v.1.15,2013-08-04 19:09:00,
2013-08-04 14:14:00,77.6,58.0,30.09,West,275,2.0,2.0,51,0.00,,,0.00,Wunderground v.1.15,2013-08-04 19:14:00,
2013-08-04 14:19:00,78.8,56.9,30.09,SW,225,1.0,2.0,47,0.00,,,0.00,Wunderground v.1.15,2013-08-04 19:19:00,
2013-08-04 14:24:00,79.4,59.1,30.09,South,183,1.0,1.0,50,0.00,,,0.00,Wunderground v.1.15,2013-08-04 19:24:00,
2013-08-04 14:29:00,79.5,58.1,30.09,NNW,331,1.0,5.0,48,0.00,,,0.00,Wunderground v.1.15,2013-08-04 19:29:00,
2013-08-04 14:34:00,78.7,57.9,30.09,North,359,2.0,3.0,49,0.00,,,0.00,Wunderground v.1.15,2013-08-04 19:34:00,
2013-08-04 14:39:00,78.6,57.8,30.09,SSW,208,2.0,3.0,49,0.00,,,0.00,Wunderground v.1.15,2013-08-04 19:39:00,
2013-08-04 14:45:00,78.7,57.4,30.09,NW,320,2.0,4.0,48,0.00,,,0.00,Wunderground v.1.15,2013-08-04 19:45:00,
2013-08-04 14:49:00,77.8,57.1,30.09,WSW,237,3.0,3.0,49,0.00,,,0.00,Wunderground v.1.15,2013-08-04 19:49:00,
2013-08-04 14:54:00,77.4,56.7,30.09,WSW,251,4.0,4.0,49,0.00,,,0.00,Wunderground v.1.15,2013-08-04 19:54:00,
2013-08-04 15:00:00,78.4,59.3,30.08,WSW,237,2.0,2.0,52,0.00,,,0.00,Wunderground v.1.15,2013-08-04 20:00:00,
2013-08-04 15:05:00,78.9,58.1,30.08,SW,220,1.0,2.0,49,0.00,,,0.00,Wunderground v.1.15,2013-08-04 20:05:00,
2013-08-04 15:11:00,80.4,59.5,30.08,SW,235,1.0,1.0,49,0.00,,,0.00,Wunderground v.1.15,2013-08-04 20:11:00,
2013-08-04 15:16:00,80.2,58.7,30.08,WSW,258,1.0,3.0,48,0.00,,,0.00,Wunderground v.1.15,2013-08-04 20:16:00,
2013-08-04 15:22:00,79.5,57.5,30.08,WNW,282,2.0,3.0,47,0.00,,,0.00,Wunderground v.1.15,2013-08-04 20:22:00,
2013-08-04 15:26:00,78.7,57.9,30.08,NW,323,2.0,6.0,49,0.00,,,0.00,Wunderground v.1.15,2013-08-04 20:26:00,
2013-08-04 15:32:00,77.4,56.7,30.07,WNW,287,3.0,5.0,49,0.00,,,0.00,Wunderground v.1.15,2013-08-04 20:32:00,
2013-08-04 15:37:00,76.7,57.2,30.07,WNW,287,4.0,5.0,51,0.00,,,0.00,Wunderground v.1.15,2013-08-04 20:37:00,
2013-08-04 15:42:00,76.9,56.8,30.07,WNW,286,3.0,3.0,50,0.00,,,0.00,Wunderground v.1.15,2013-08-04 20:42:00,
2013-08-04 15:47:00,77.3,57.8,30.07,West,275,2.0,3.0,51,0.00,,,0.00,Wunderground v.1.15,2013-08-04 20:47:00,
2013-08-04 15:52:00,77.7,57.0,30.07,WSW,249,2.0,2.0,49,0.00,,,0.00,Wunderground v.1.15,2013-08-04 20:52:00,
2013-08-04 15:57:00,78.1,59.0,30.08,NW,310,2.0,5.0,52,0.00,,,0.00,Wunderground v.1.15,2013-08-04 20:57:00,
2013-08-04 16:02:00,77.8,58.2,30.08,WNW,293,3.0,4.0,51,0.00,,,0.00,Wunderground v.1.15,2013-08-04 21:02:00,
2013-08-04 16:08:00,77.7,55.9,30.08,WNW,295,3.0,5.0,47,0.00,,,0.00,Wunderground v.1.15,2013-08-04 21:08:00,
2013-08-04 16:13:00,78.7,58.5,30.08,West,279,2.0,3.0,50,0.00,,,0.00,Wunderground v.1.15,2013-08-04 21:13:00,
2013-08-04 16:18:00,78.8,57.4,30.08,WNW,293,1.0,5.0,48,0.00,,,0.00,Wunderground v.1.15,2013-08-04 21:18:00,
2013-08-04 16:24:00,78.1,55.6,30.08,West,267,3.0,4.0,46,0.00,,,0.00,Wunderground v.1.15,2013-08-04 21:24:00,
2013-08-04 16:29:00,77.8,55.4,30.08,NNW,327,4.0,6.0,46,0.00,,,0.00,Wunderground v.1.15,2013-08-04 21:29:00,
2013-08-04 16:34:00,77.8,57.1,30.08,NW,320,3.0,4.0,49,0.00,,,0.00,Wunderground v.1.15,2013-08-04 21:34:00,
2013-08-04 16:39:00,78.5,57.2,30.08,NW,320,2.0,2.0,48,0.00,,,0.00,Wunderground v.1.15,2013-08-04 21:39:00,
2013-08-04 16:45:00,78.9,57.0,30.08,West,278,2.0,3.0,47,0.00,,,0.00,Wunderground v.1.15,2013-08-04 21:45:00,
2013-08-04 16:50:00,78.4,55.9,30.08,WNW,299,2.0,7.0,46,0.00,,,0.00,Wunderground v.1.15,2013-08-04 21:50:00,
2013-08-04 16:55:00,78.3,57.0,30.08,WNW,284,3.0,7.0,48,0.00,,,0.00,Wunderground v.1.15,2013-08-04 21:55:00,
2013-08-04 16:57:00,78.1,57.9,30.08,WNW,296,3.0,7.0,50,0.00,,,0.00,Wunderground v.1.15,2013-08-04 21:57:00,
2013-08-04 17:03:00,78.0,57.9,30.08,WNW,289,3.0,4.0,50,0.00,,,0.00,Wunderground v.1.15,2013-08-04 22:03:00,
2013-08-04 17:08:00,78.0,57.3,30.08,WNW,298,4.0,5.0,49,0.00,,,0.00,Wunderground v.1.15,2013-08-04 22:08:00,
2013-08-04 17:13:00,77.9,56.6,30.08,West,263,4.0,4.0,48,0.00,,,0.00,Wunderground v.1.15,2013-08-04 22:13:00,
2013-08-04 17:19:00,77.9,56.0,30.07,WNW,286,3.0,5.0,47,0.00,,,0.00,Wunderground v.1.15,2013-08-04 22:19:00,
2013-08-04 17:23:00,78.4,58.2,30.07,WSW,251,2.0,4.0,50,0.00,,,0.00,Wunderground v.1.15,2013-08-04 22:23:00,
2013-08-04 17:28:00,78.9,57.0,30.07,NNW,347,1.0,4.0,47,0.00,,,0.00,Wunderground v.1.15,2013-08-04 22:28:00,
2013-08-04 17:34:00,78.2,56.9,30.07,NNW,344,2.0,5.0,48,0.00,,,0.00,Wunderground v.1.15,2013-08-04 22:34:00,
2013-08-04 17:39:00,77.6,56.9,30.07,NW,305,4.0,6.0,49,0.00,,,0.00,Wunderground v.1.15,2013-08-04 22:39:00,
2013-08-04 17:44:00,78.0,57.3,30.07,NNW,333,3.0,4.0,49,0.00,,,0.00,Wunderground v.1.15,2013-08-04 22:44:00,
2013-08-04 17:49:00,78.1,59.0,30.06,NNE,19,2.0,4.0,52,0.00,,,0.00,Wunderground v.1.15,2013-08-04 22:49:00,
2013-08-04 17:54:00,77.7,58.7,30.06,West,264,2.0,4.0,52,0.00,,,0.00,Wunderground v.1.15,2013-08-04 22:54:00,
2013-08-04 17:59:00,77.7,59.7,30.05,WNW,296,2.0,4.0,54,0.00,,,0.00,Wunderground v.1.15,2013-08-04 22:59:00,
2013-08-04 18:05:00,77.6,59.1,30.06,WSW,253,1.0,2.0,53,0.00,,,0.00,Wunderground v.1.15,2013-08-04 23:05:00,
2013-08-04 18:11:00,78.1,59.6,30.05,NW,313,1.0,1.0,53,0.00,,,0.00,Wunderground v.1.15,2013-08-04 23:11:00,
2013-08-04 18:16:00,78.1,61.1,30.05,NNW,337,1.0,1.0,56,0.00,,,0.00,Wunderground v.1.15,2013-08-04 23:16:00,
2013-08-04 18:21:00,78.1,60.6,30.05,WNW,295,1.0,1.0,55,0.00,,,0.00,Wunderground v.1.15,2013-08-04 23:21:00,
2013-08-04 18:25:00,77.9,60.9,30.05,West,272,1.0,1.0,56,0.00,,,0.00,Wunderground v.1.15,2013-08-04 23:25:00,
2013-08-04 18:31:00,78.3,61.3,30.05,West,268,0.0,2.0,56,0.00,,,0.00,Wunderground v.1.15,2013-08-04 23:31:00,
2013-08-04 18:36:00,78.5,61.5,30.05,West,277,0.0,2.0,56,0.00,,,0.00,Wunderground v.1.15,2013-08-04 23:36:00,
2013-08-04 18:41:00,78.1,61.1,30.05,West,277,1.0,1.0,56,0.00,,,0.00,Wunderground v.1.15,2013-08-04 23:41:00,
2013-08-04 18:46:00,78.0,61.5,30.05,West,261,0.0,1.0,57,0.00,,,0.00,Wunderground v.1.15,2013-08-04 23:46:00,
2013-08-04 18:52:00,77.7,61.3,30.05,WSW,247,0.0,0.0,57,0.00,,,0.00,Wunderground v.1.15,2013-08-04 23:52:00,
2013-08-04 18:57:00,77.3,62.8,30.05,WSW,244,0.0,0.0,61,0.00,,,0.00,Wunderground v.1.15,2013-08-04 23:57:00,
2013-08-04 19:03:00,76.8,62.8,30.05,West,271,0.0,1.0,62,0.00,,,0.00,Wunderground v.1.15,2013-08-05 00:03:00,
2013-08-04 19:08:00,75.9,61.0,30.05,West,263,0.0,1.0,60,0.00,,,0.00,Wunderground v.1.15,2013-08-05 00:08:00,
2013-08-04 19:13:00,75.3,61.8,30.05,West,263,0.0,1.0,63,0.00,,,0.00,Wunderground v.1.15,2013-08-05 00:13:00,
2013-08-04 19:17:00,74.8,60.0,30.05,West,263,1.0,1.0,60,0.00,,,0.00,Wunderground v.1.15,2013-08-05 00:17:00,
2013-08-04 19:24:00,74.9,60.1,30.05,West,263,1.0,1.0,60,0.00,,,0.00,Wunderground v.1.15,2013-08-05 00:24:00,
2013-08-04 19:28:00,74.5,61.1,30.05,West,272,0.0,1.0,63,0.00,,,0.00,Wunderground v.1.15,2013-08-05 00:28:00,
2013-08-04 19:33:00,74.5,62.4,30.05,West,278,0.0,1.0,66,0.00,,,0.00,Wunderground v.1.15,2013-08-05 00:33:00,
2013-08-04 19:38:00,74.4,60.5,30.05,West,280,0.0,1.0,62,0.00,,,0.00,Wunderground v.1.15,2013-08-05 00:38:00,
2013-08-04 19:45:00,73.8,61.3,30.05,West,280,0.0,0.0,65,0.00,,,0.00,Wunderground v.1.15,2013-08-05 00:45:00,
2013-08-04 19:50:00,72.9,62.1,30.05,West,280,1.0,2.0,69,0.00,,,0.00,Wunderground v.1.15,2013-08-05 00:50:00,
2013-08-04 19:56:00,72.5,59.6,30.05,West,281,2.0,2.0,64,0.00,,,0.00,Wunderground v.1.15,2013-08-05 00:56:00,
2013-08-04 20:02:00,72.3,63.2,30.05,West,280,1.0,2.0,73,0.00,,,0.00,Wunderground v.1.15,2013-08-05 01:02:00,
2013-08-04 20:08:00,71.2,62.9,30.05,West,280,0.0,2.0,75,0.00,,,0.00,Wunderground v.1.15,2013-08-05 01:08:00,
2013-08-04 20:13:00,70.5,62.2,30.05,West,280,0.0,0.0,75,0.00,,,0.00,Wunderground v.1.15,2013-08-05 01:13:00,
2013-08-04 20:18:00,70.1,62.9,30.05,West,272,0.0,0.0,78,0.00,,,0.00,Wunderground v.1.15,2013-08-05 01:18:00,
2013-08-04 20:24:00,70.1,62.9,30.05,West,263,0.0,1.0,78,0.00,,,0.00,Wunderground v.1.15,2013-08-05 01:24:00,
2013-08-04 20:29:00,69.8,61.9,30.05,West,260,0.0,1.0,76,0.00,,,0.00,Wunderground v.1.15,2013-08-05 01:29:00,
2013-08-04 20:34:00,69.7,61.8,30.05,WSW,258,0.0,0.0,76,0.00,,,0.00,Wunderground v.1.15,2013-08-05 01:34:00,
2013-08-04 20:39:00,68.7,62.3,30.05,WSW,254,0.0,0.0,80,0.00,,,0.00,Wunderground v.1.15,2013-08-05 01:39:00,
2013-08-04 20:45:00,68.1,60.6,30.06,WSW,255,0.0,0.0,77,0.00,,,0.00,Wunderground v.1.15,2013-08-05 01:45:00,
2013-08-04 20:50:00,67.9,61.1,30.06,WSW,253,0.0,0.0,79,0.00,,,0.00,Wunderground v.1.15,2013-08-05 01:50:00,
2013-08-04 20:54:00,67.3,60.6,30.06,WSW,253,0.0,0.0,79,0.00,,,0.00,Wunderground v.1.15,2013-08-05 01:54:00,
2013-08-04 21:00:00,67.2,60.5,30.06,WSW,253,0.0,0.0,79,0.00,,,0.00,Wunderground v.1.15,2013-08-05 02:00:00,
2013-08-04 21:06:00,67.2,60.8,30.06,ENE,69,0.0,5.0,80,0.00,,,0.00,Wunderground v.1.15,2013-08-05 02:06:00,
2013-08-04 21:11:00,67.1,60.4,30.06,ENE,66,2.0,3.0,79,0.00,,,0.00,Wunderground v.1.15,2013-08-05 02:11:00,
2013-08-04 21:16:00,66.5,60.1,30.06,ENE,69,4.0,6.0,80,0.00,,,0.00,Wunderground v.1.15,2013-08-05 02:16:00,
2013-08-04 21:21:00,66.3,60.3,30.06,ENE,72,4.0,5.0,81,0.00,,,0.00,Wunderground v.1.15,2013-08-05 02:21:00,
2013-08-04 21:26:00,66.0,60.7,30.06,ENE,66,4.0,5.0,83,0.00,,,0.00,Wunderground v.1.15,2013-08-05 02:26:00,
2013-08-04 21:30:00,65.8,60.5,30.06,ENE,71,4.0,4.0,83,0.00,,,0.00,Wunderground v.1.15,2013-08-05 02:30:00,
2013-08-04 21:36:00,66.0,60.7,30.06,ENE,68,4.0,6.0,83,0.00,,,0.00,Wunderground v.1.15,2013-08-05 02:36:00,
2013-08-04 21:41:00,65.9,60.9,30.06,ENE,58,4.0,4.0,84,0.00,,,0.00,Wunderground v.1.15,2013-08-05 02:41:00,
2013-08-04 21:45:00,65.8,60.8,30.06,ENE,65,4.0,5.0,84,0.00,,,0.00,Wunderground v.1.15,2013-08-05 02:45:00,
2013-08-04 21:51:00,65.8,60.8,30.06,ENE,76,4.0,5.0,84,0.00,,,0.00,Wunderground v.1.15,2013-08-05 02:51:00,
2013-08-04 21:57:00,65.6,61.0,30.06,NE,55,4.0,5.0,85,0.00,,,0.00,Wunderground v.1.15,2013-08-05 02:57:00,
2013-08-04 22:03:00,65.6,60.6,30.06,East,82,4.0,5.0,84,0.00,,,0.00,Wunderground v.1.15,2013-08-05 03:03:00,
2013-08-04 22:07:00,65.7,60.4,30.06,ENE,75,5.0,6.0,83,0.00,,,0.00,Wunderground v.1.15,2013-08-05 03:07:00,
2013-08-04 22:13:00,65.5,60.5,30.06,NE,47,4.0,5.0,84,0.00,,,0.00,Wunderground v.1.15,2013-08-05 03:13:00,
2013-08-04 22:17:00,65.4,60.4,30.06,East,96,4.0,5.0,84,0.00,,,0.00,Wunderground v.1.15,2013-08-05 03:17:00,
2013-08-04 22:23:00,65.2,60.2,30.06,East,81,3.0,4.0,84,0.00,,,0.00,Wunderground v.1.15,2013-08-05 03:23:00,
2013-08-04 22:29:00,65.0,60.4,30.06,ENE,76,3.0,4.0,85,0.00,,,0.00,Wunderground v.1.15,2013-08-05 03:29:00,
2013-08-04 22:35:00,64.7,60.1,30.06,East,82,3.0,4.0,85,0.00,,,0.00,Wunderground v.1.15,2013-08-05 03:35:00,
2013-08-04 22:40:00,64.6,60.0,30.06,East,95,3.0,4.0,85,0.00,,,0.00,Wunderground v.1.15,2013-08-05 03:40:00,
2013-08-04 22:45:00,64.6,60.0,30.06,East,82,4.0,5.0,85,0.00,,,0.00,Wunderground v.1.15,2013-08-05 03:45:00,
2013-08-04 22:51:00,64.7,59.8,30.06,ESE,107,4.0,5.0,84,0.00,,,0.00,Wunderground v.1.15,2013-08-05 03:51:00,
2013-08-04 22:56:00,64.8,59.5,30.06,East,87,4.0,5.0,83,0.00,,,0.00,Wunderground v.1.15,2013-08-05 03:56:00,
2013-08-04 23:02:00,64.8,59.5,30.06,ENE,76,3.0,4.0,83,0.00,,,0.00,Wunderground v.1.15,2013-08-05 04:02:00,
2013-08-04 23:04:00,64.8,59.5,30.06,East,90,3.0,4.0,83,0.00,,,0.00,Wunderground v.1.15,2013-08-05 04:04:00,
2013-08-04 23:05:00,64.8,59.5,30.06,ESE,102,3.0,4.0,83,0.00,,,0.00,Wunderground v.1.15,2013-08-05 04:05:00,
2013-08-04 23:09:00,64.7,59.4,30.06,East,85,3.0,5.0,83,0.00,,,0.00,Wunderground v.1.15,2013-08-05 04:09:00,
2013-08-04 23:14:00,64.6,59.7,30.06,East,82,3.0,4.0,84,0.00,,,0.00,Wunderground v.1.15,2013-08-05 04:14:00,
2013-08-04 23:21:00,64.3,59.4,30.06,ESE,117,3.0,3.0,84,0.00,,,0.00,Wunderground v.1.15,2013-08-05 04:21:00,
2013-08-04 23:25:00,64.2,59.6,30.06,East,95,2.0,3.0,85,0.00,,,0.00,Wunderground v.1.15,2013-08-05 04:25:00,
2013-08-04 23:30:00,64.1,59.5,30.06,ESE,102,3.0,3.0,85,0.00,,,0.00,Wunderground v.1.15,2013-08-05 04:30:00,
2013-08-04 23:36:00,63.9,59.3,30.06,SE,124,2.0,3.0,85,0.00,,,0.00,Wunderground v.1.15,2013-08-05 04:36:00,
2013-08-04 23:42:00,64.0,59.4,30.05,East,99,2.0,3.0,85,0.00,,,0.00,Wunderground v.1.15,2013-08-05 04:42:00,
2013-08-04 23:47:00,64.1,59.5,30.05,East,100,2.0,3.0,85,0.00,,,0.00,Wunderground v.1.15,2013-08-05 04:47:00,
2013-08-04 23:52:00,64.1,59.5,30.05,East,85,3.0,3.0,85,0.00,,,0.00,Wunderground v.1.15,2013-08-05 04:52:00,
2013-08-04 23:57:00,64.0,59.4,30.05,ENE,62,3.0,4.0,85,0.00,,,0.00,Wunderground v.1.15,2013-08-05 04:57:00,